Time;durP1;ratioP1;P1;durP2;ratioP2;P2;SDS_P1;SDS_P2;PMS_P1;PMS_P2;Temp;Humidity;BMP_temperature;BMP_pressure;BME280_temperature;BME280_humidity;BME280_pressure;Samples;Min_cycle;Max_cycle;Signal;HPM_P1;HPM_P2
2023/03/20 00:11:29;;;;;;;13.97;5.27;;;;;;;6.73;100.00;100586.38;31165450;28;20050;-77
2023/03/20 00:26:34;;;;;;;15.43;5.17;;;;;;;6.57;100.00;100582.47;31174765;28;20050;-76
2023/03/20 00:41:40;;;;;;;13.37;5.43;;;;;;;6.37;100.00;100580.06;31196921;28;20811;-77
2023/03/20 00:56:47;;;;;;;8.10;4.43;;;;;;;6.24;100.00;100586.13;31168148;28;20106;-78
2023/03/20 01:11:49;;;;;;;9.70;4.43;;;;;;;6.00;100.00;100572.13;31221124;28;20052;-76
2023/03/20 01:26:53;;;;;;;7.27;4.10;;;;;;;5.81;100.00;100581.22;31219818;28;20149;-76
2023/03/20 01:41:55;;;;;;;8.23;4.27;;;;;;;5.67;100.00;100574.97;31213937;28;20054;-77
2023/03/20 01:57:13;;;;;;;9.63;4.63;;;;;;;5.45;100.00;100574.00;31206267;28;20473;-77
2023/03/20 02:12:16;;;;;;;6.70;3.90;;;;;;;5.32;100.00;100581.59;31212540;28;20057;-77
2023/03/20 02:27:36;;;;;;;8.53;4.67;;;;;;;5.02;100.00;100576.28;31188811;28;20479;-76
2023/03/20 02:42:57;;;;;;;13.03;4.63;;;;;;;5.00;100.00;100573.19;31216231;28;20111;-77
2023/03/20 02:58:14;;;;;;;11.07;4.50;;;;;;;4.86;100.00;100575.75;31191002;28;20095;-77
2023/03/20 03:13:28;;;;;;;9.10;4.87;;;;;;;4.64;100.00;100571.25;31191459;28;20083;-77
2023/03/20 03:28:42;;;;;;;13.90;5.10;;;;;;;4.59;100.00;100560.81;31177743;28;20127;-76
2023/03/20 03:43:59;;;;;;;10.67;4.93;;;;;;;4.37;100.00;100555.19;31179409;28;20099;-78
2023/03/20 03:59:07;;;;;;;11.13;5.83;;;;;;;4.15;100.00;100564.09;31206271;28;20502;-77
2023/03/20 04:14:10;;;;;;;12.77;6.00;;;;;;;4.17;100.00;100563.75;31199269;28;20522;-77
2023/03/20 04:29:12;;;;;;;12.37;6.20;;;;;;;4.44;100.00;100576.00;31200624;28;20058;-77
2023/03/20 04:44:14;;;;;;;19.80;7.70;;;;;;;4.67;100.00;100590.13;31195153;28;20569;-77
2023/03/20 04:59:16;;;;;;;24.30;9.10;;;;;;;4.89;100.00;100585.00;31223385;28;20135;-77
2023/03/20 05:14:18;;;;;;;18.40;7.83;;;;;;;4.93;100.00;100597.34;31232737;28;20458;-78
2023/03/20 05:29:20;;;;;;;20.53;7.90;;;;;;;5.28;100.00;100606.91;31235159;28;20053;-78
2023/03/20 05:44:22;;;;;;;22.57;8.47;;;;;;;5.50;100.00;100608.66;31209046;28;20103;-78
2023/03/20 05:59:25;;;;;;;21.23;8.17;;;;;;;5.61;100.00;100620.31;31223151;28;20104;-77
2023/03/20 06:14:26;;;;;;;16.57;8.00;;;;;;;5.64;100.00;100622.28;31203053;28;20099;-77
2023/03/20 06:29:28;;;;;;;21.73;8.17;;;;;;;5.90;100.00;100636.75;31189460;28;20423;-76
2023/03/20 06:44:30;;;;;;;21.93;8.53;;;;;;;6.28;100.00;100619.28;31210485;28;20045;-79
2023/03/20 06:59:32;;;;;;;17.27;7.70;;;;;;;6.63;100.00;100613.28;31218143;28;20387;-77
2023/03/20 07:14:34;;;;;;;21.30;9.03;;;;;;;7.16;100.00;100598.06;31176792;28;20508;-78
2023/03/20 07:29:36;;;;;;;17.13;9.00;;;;;;;7.85;100.00;100600.44;31202389;28;20100;-78
2023/03/20 07:44:38;;;;;;;19.43;7.80;;;;;;;10.31;100.00;100582.81;31122879;28;1424311;-80
2023/03/20 07:59:40;;;;;;;17.90;9.43;;;;;;;10.36;100.00;100606.81;31180928;28;20111;-77
2023/03/20 08:14:43;;;;;;;24.80;10.63;;;;;;;9.87;100.00;100604.16;31207274;28;20053;-77
2023/03/20 08:29:45;;;;;;;20.87;9.63;;;;;;;9.82;100.00;100604.59;31227844;28;20053;-78
2023/03/20 08:44:47;;;;;;;20.10;9.57;;;;;;;10.26;100.00;100584.03;31222508;28;20045;-83
2023/03/20 08:59:49;;;;;;;20.77;9.20;;;;;;;10.69;100.00;100576.16;31207475;28;20411;-76
2023/03/20 09:14:51;;;;;;;21.00;8.73;;;;;;;12.06;100.00;100560.09;31202984;28;20107;-74
2023/03/20 09:29:52;;;;;;;15.43;7.50;;;;;;;13.75;100.00;100549.38;31202385;28;20096;-75
2023/03/20 09:45:07;;;;;;;18.90;8.40;;;;;;;14.26;98.66;100550.38;31200756;28;20054;-75
2023/03/20 10:00:17;;;;;;;23.90;7.93;;;;;;;14.74;100.00;100536.94;31201586;28;20054;-74
2023/03/20 10:15:45;;;;;;;23.13;7.80;;;;;;;14.63;97.20;100535.31;31192012;28;20080;-75
2023/03/20 10:31:01;;;;;;;23.90;8.80;;;;;;;14.33;100.00;100528.34;31207185;28;20111;-75
2023/03/20 10:46:03;;;;;;;;;;;;;;;14.35;100.00;100514.25;31203376;28;20424;-74
2023/03/20 11:01:05;;;;;;;15.70;7.63;;;;;;;13.44;100.00;100513.56;31215837;28;19932;-74
2023/03/20 11:16:31;;;;;;;23.63;9.23;;;;;;;13.44;100.00;100499.16;31205334;28;20063;-75
2023/03/20 11:31:39;;;;;;;20.60;8.87;;;;;;;13.67;100.00;100485.31;31196535;28;20475;-74
2023/03/20 11:46:41;;;;;;;19.97;10.67;;;;;;;14.88;100.00;100473.66;31190164;28;20064;-73
2023/03/20 12:01:50;;;;;;;29.23;11.30;;;;;;;13.29;100.00;100474.97;31186763;28;20049;-74
2023/03/20 12:17:29;;;;;;;31.77;10.47;;;;;;;12.90;100.00;100466.94;31196742;28;20152;-73
2023/03/20 12:32:31;;;;;;;29.43;11.13;;;;;;;11.78;100.00;100445.19;31183234;28;20515;-73
2023/03/20 12:47:48;;;;;;;24.83;11.13;;;;;;;11.62;100.00;100434.97;31169481;28;20085;-76
2023/03/20 13:03:26;;;;;;;26.87;12.73;;;;;;;11.20;100.00;100431.06;31163876;28;20053;-78
2023/03/20 13:18:58;;;;;;;30.97;11.83;;;;;;;11.22;100.00;100417.06;31214568;28;20077;-75
2023/03/20 13:34:05;;;;;;;38.53;13.03;;;;;;;11.07;100.00;100408.38;31204070;28;20057;-79
2023/03/20 13:49:18;;;;;;;27.67;11.20;;;;;;;10.92;100.00;100407.06;31222147;28;20058;-75
2023/03/20 14:04:22;;;;;;;31.27;11.97;;;;;;;11.01;100.00;100401.13;31192547;28;20046;-81
2023/03/20 14:19:29;;;;;;;35.20;13.77;;;;;;;10.93;100.00;100395.78;31198507;28;20137;-79
2023/03/20 14:34:48;;;;;;;33.43;13.40;;;;;;;10.80;100.00;100377.78;31184160;28;20581;-76
2023/03/20 14:49:56;;;;;;;19.07;11.53;;;;;;;10.91;100.00;100370.22;31191122;28;20690;-80
2023/03/20 15:05:01;;;;;;;30.20;11.87;;;;;;;10.82;100.00;100356.44;31211753;28;20055;-83
2023/03/20 15:20:14;;;;;;;35.73;11.83;;;;;;;10.53;100.00;100361.53;31177014;28;20049;-83
2023/03/20 15:35:19;;;;;;;35.43;13.00;;;;;;;10.07;100.00;100362.16;31186178;28;20069;-84
2023/03/20 15:50:48;;;;;;;34.37;13.43;;;;;;;9.87;100.00;100364.75;31196260;28;20577;-80
2023/03/20 16:05:52;;;;;;;32.83;13.50;;;;;;;9.62;100.00;100380.56;31202964;28;20111;-74
2023/03/20 16:21:03;;;;;;;35.50;13.37;;;;;;;9.39;100.00;100400.16;31194642;28;20042;-79
2023/03/20 16:36:06;;;;;;;38.30;16.37;;;;;;;9.13;100.00;100410.47;31213125;28;20081;-73
2023/03/20 16:51:41;;;;;;;56.50;22.57;;;;;;;8.76;100.00;100407.66;31212694;28;20084;-82
2023/03/20 17:06:47;;;;;;;46.77;19.60;;;;;;;8.51;100.00;100419.41;31194445;28;20116;-80
2023/03/20 17:21:56;;;;;;;39.83;18.37;;;;;;;8.08;100.00;100418.84;31186993;28;20050;-78
2023/03/20 17:37:02;;;;;;;40.00;16.57;;;;;;;7.79;100.00;100426.31;31190293;28;20053;-77
2023/03/20 17:52:04;;;;;;;50.23;20.50;;;;;;;7.62;100.00;100419.00;31203661;28;20053;-78
2023/03/20 18:07:13;;;;;;;46.87;16.10;;;;;;;7.49;100.00;100409.78;31238702;28;20056;-75
2023/03/20 18:22:18;;;;;;;41.90;15.30;;;;;;;7.30;100.00;100413.69;31204043;28;20050;-76
2023/03/20 18:37:19;;;;;;;48.07;19.80;;;;;;;7.12;100.00;100424.50;31226340;28;20108;-74
2023/03/20 18:52:24;;;;;;;47.10;19.70;;;;;;;6.95;100.00;100413.69;31221498;28;20596;-74
2023/03/20 19:07:26;;;;;;;42.70;16.83;;;;;;;6.91;100.00;100402.91;31202884;28;20096;-75
2023/03/20 19:22:28;;;;;;;40.27;14.80;;;;;;;6.70;100.00;100397.50;31217503;28;20434;-76
2023/03/20 19:37:33;;;;;;;32.20;13.93;;;;;;;6.62;100.00;100394.00;31204878;28;20057;-76
2023/03/20 19:52:38;;;;;;;32.57;13.27;;;;;;;6.62;100.00;100379.75;31168661;28;20111;-76
2023/03/20 20:07:41;;;;;;;39.80;13.27;;;;;;;6.48;100.00;100370.50;31182424;28;20065;-74
2023/03/20 20:23:14;;;;;;;32.13;14.17;;;;;;;6.47;100.00;100368.97;31224763;28;20149;-75
2023/03/20 20:38:16;;;;;;;38.30;15.87;;;;;;;6.59;100.00;100358.97;31217406;28;21128;-75
2023/03/20 20:53:38;;;;;;;39.37;15.80;;;;;;;6.49;100.00;100355.88;31201534;28;20411;-76
2023/03/20 21:08:41;;;;;;;36.20;15.03;;;;;;;6.62;100.00;100342.00;31219275;28;20092;-75
2023/03/20 21:23:43;;;;;;;40.53;14.67;;;;;;;6.64;100.00;100339.69;31222138;28;20076;-75
2023/03/20 21:38:45;;;;;;;35.37;14.00;;;;;;;6.60;100.00;100322.75;31211872;28;20057;-77
2023/03/20 21:54:07;;;;;;;39.33;16.83;;;;;;;6.39;100.00;100324.25;31230364;28;20149;-77
2023/03/20 22:09:31;;;;;;;31.10;15.23;;;;;;;6.44;100.00;100320.41;31179040;28;20160;-76
2023/03/20 22:24:57;;;;;;;43.83;15.57;;;;;;;6.41;100.00;100319.25;31183368;28;20055;-75
2023/03/20 22:40:19;;;;;;;35.60;14.00;;;;;;;6.32;100.00;100323.50;31196699;28;20053;-76
2023/03/20 22:55:43;;;;;;;36.70;15.27;;;;;;;6.24;100.00;100306.53;31171496;28;20080;-76
2023/03/20 23:10:47;;;;;;;35.47;14.07;;;;;;;6.12;100.00;100309.59;31204972;28;20049;-76
2023/03/20 23:26:05;;;;;;;41.60;15.43;;;;;;;5.83;100.00;100292.56;31214463;28;20053;-75
2023/03/20 23:41:08;;;;;;;41.93;15.20;;;;;;;5.92;100.00;100284.91;31189012;28;20058;-76
2023/03/20 23:56:12;;;;;;;38.33;15.57;;;;;;;5.74;100.00;100284.06;31189319;28;20119;-76
